Time;durP1;ratioP1;P1;durP2;ratioP2;P2;SDS_P1;SDS_P2;PMS_P1;PMS_P2;Temp;Humidity;BMP_temperature;BMP_pressure;BME280_temperature;BME280_humidity;BME280_pressure;Samples;Min_cycle;Max_cycle;Signal;HPM_P1;HPM_P2
2022/11/24 00:00:17;;;;;;;14.70;4.67;;;;;;;9.15;66.51;99830.53;688747;28;1143;-85
2022/11/24 00:00:37;;;;;;;15.63;4.80;;;;;;;9.09;66.67;99805.22;689867;28;1163;-84
2022/11/24 00:01:05;;;;;;;17.40;4.60;;;;;;;9.20;66.22;99825.41;687457;28;1848;-84
2022/11/24 00:01:30;;;;;;;14.57;4.28;;;;;;;9.15;66.79;99815.75;690076;28;1443;-85
2022/11/24 00:01:51;;;;;;;8.35;3.70;;;;;;;9.14;66.41;99813.13;685404;28;839;-85
2022/11/24 00:02:13;;;;;;;10.17;3.87;;;;;;;9.21;66.52;99820.19;690951;28;1962;-84
2022/11/24 00:02:34;;;;;;;12.18;4.30;;;;;;;9.23;66.67;99821.13;687978;28;1476;-84
2022/11/24 00:02:54;;;;;;;14.70;4.43;;;;;;;9.14;66.33;99824.41;693427;28;1286;-85
2022/11/24 00:03:15;;;;;;;14.33;4.50;;;;;;;9.11;66.49;99808.75;687854;28;1184;-84
2022/11/24 00:03:36;;;;;;;13.50;4.40;;;;;;;9.17;66.66;99819.25;687999;28;1345;-84
2022/11/24 00:04:04;;;;;;;11.68;4.38;;;;;;;9.05;66.93;99804.28;682503;29;1845;-84
2022/11/24 00:04:25;;;;;;;13.60;4.18;;;;;;;9.03;66.60;99816.41;684772;28;1210;-84
2022/11/24 00:04:46;;;;;;;17.73;4.63;;;;;;;9.08;66.97;99810.44;688130;28;1276;-84
2022/11/24 00:05:07;;;;;;;17.25;5.00;;;;;;;9.20;66.72;99823.66;692382;28;1995;-85
2022/11/24 00:05:28;;;;;;;13.70;5.03;;;;;;;9.21;66.78;99809.78;690829;28;1308;-84
2022/11/24 00:05:48;;;;;;;13.05;4.90;;;;;;;9.27;66.61;99803.84;688217;28;940;-84
2022/11/24 00:06:12;;;;;;;14.85;4.65;;;;;;;9.41;66.39;99824.91;685044;28;1650;-85
2022/11/24 00:06:34;;;;;;;15.38;4.57;;;;;;;9.36;66.18;99810.91;692823;28;1645;-84
2022/11/24 00:06:55;;;;;;;14.82;4.80;;;;;;;9.30;66.28;99809.06;690327;28;1125;-85
2022/11/24 00:07:16;;;;;;;14.70;4.70;;;;;;;9.36;66.28;99809.19;684981;28;1159;-85
2022/11/24 00:07:36;;;;;;;14.82;4.60;;;;;;;9.37;66.07;99818.75;688058;28;1313;-84
2022/11/24 00:07:57;;;;;;;13.83;4.10;;;;;;;9.39;65.85;99818.78;687714;28;1452;-85
2022/11/24 00:08:18;;;;;;;13.85;4.03;;;;;;;9.32;66.05;99810.88;685202;28;1127;-85
2022/11/24 00:08:40;;;;;;;13.77;3.95;;;;;;;9.30;66.32;99822.09;688052;28;1188;-85
2022/11/24 00:09:02;;;;;;;13.52;4.20;;;;;;;9.29;66.33;99813.41;690787;28;1058;-84
2022/11/24 00:09:22;;;;;;;10.10;4.03;;;;;;;9.37;66.23;99816.16;693373;28;1185;-84
2022/11/24 00:09:43;;;;;;;9.27;3.90;;;;;;;9.34;66.44;99820.44;688407;28;1448;-84
2022/11/24 00:10:04;;;;;;;10.47;4.10;;;;;;;9.31;66.31;99816.94;690217;28;1268;-84
2022/11/24 00:10:24;;;;;;;10.98;4.10;;;;;;;9.39;66.38;99829.22;691002;28;1310;-84
2022/11/24 00:10:45;;;;;;;12.15;4.18;;;;;;;9.37;66.69;99826.56;688153;28;799;-84
2022/11/24 00:11:12;;;;;;;11.05;4.22;;;;;;;9.34;66.44;99823.03;687745;28;1440;-84
2022/11/24 00:11:34;;;;;;;12.20;4.32;;;;;;;9.34;66.26;99829.09;692990;28;1277;-84
2022/11/24 00:11:55;;;;;;;10.27;4.03;;;;;;;9.34;66.21;99823.03;687918;28;1492;-84
2022/11/24 00:12:16;;;;;;;9.00;3.67;;;;;;;9.30;66.57;99817.78;686898;28;1166;-84
2022/11/24 00:12:36;;;;;;;9.63;4.00;;;;;;;9.33;66.59;99814.31;690434;28;1018;-84
2022/11/24 00:12:57;;;;;;;12.43;4.30;;;;;;;9.32;66.46;99817.78;690667;28;1444;-84
2022/11/24 00:13:17;;;;;;;14.15;4.00;;;;;;;9.39;66.34;99821.41;690582;28;1275;-85
2022/11/24 00:13:39;;;;;;;14.80;4.00;;;;;;;9.37;66.28;99815.25;687896;28;1235;-85
2022/11/24 00:14:00;;;;;;;15.00;4.40;;;;;;;9.46;66.25;99837.13;690841;28;1349;-84
2022/11/24 00:14:21;;;;;;;11.90;4.50;;;;;;;9.41;66.19;99822.28;693305;28;1205;-84
2022/11/24 00:14:41;;;;;;;12.70;4.78;;;;;;;9.56;66.17;99832.97;690699;28;1412;-84
2022/11/24 00:15:02;;;;;;;11.23;4.65;;;;;;;9.63;65.87;99830.47;693197;28;1766;-84
2022/11/24 00:15:23;;;;;;;12.10;4.50;;;;;;;9.71;66.01;99832.34;687934;28;1557;-84
2022/11/24 00:15:44;;;;;;;14.10;4.50;;;;;;;9.67;66.14;99824.44;688064;28;776;-84
2022/11/24 00:16:11;;;;;;;16.00;4.60;;;;;;;9.67;65.72;99830.56;692061;28;1172;-84
2022/11/24 00:16:34;;;;;;;14.55;4.40;;;;;;;9.67;65.48;99834.88;693311;28;1151;-84
2022/11/24 00:16:54;;;;;;;11.58;4.06;;;;;;;9.66;65.76;99838.34;687938;28;1927;-85
2022/11/24 00:17:15;;;;;;;10.77;3.80;;;;;;;9.55;65.67;99825.13;687880;28;1190;-84
2022/11/24 00:17:36;;;;;;;10.52;3.80;;;;;;;9.58;65.63;99826.06;687996;28;1919;-85
2022/11/24 00:17:56;;;;;;;12.20;3.80;;;;;;;9.58;65.88;99826.06;685346;28;1326;-85
2022/11/24 00:18:17;;;;;;;12.93;4.30;;;;;;;9.59;65.83;99829.56;693354;28;1352;-85
2022/11/24 00:18:39;;;;;;;13.63;4.35;;;;;;;9.63;65.60;99833.09;690863;28;979;-85
2022/11/24 00:19:02;;;;;;;13.07;4.45;;;;;;;9.50;65.79;99825.03;693624;28;1619;-84
2022/11/24 00:19:22;;;;;;;12.45;4.30;;;;;;;9.43;65.94;99823.19;692724;28;1514;-84
2022/11/24 00:19:43;;;;;;;13.55;4.38;;;;;;;9.40;65.88;99820.53;693239;28;994;-84
2022/11/24 00:20:04;;;;;;;13.50;4.40;;;;;;;9.39;66.08;99813.59;686963;28;1899;-84
2022/11/24 00:20:26;;;;;;;12.15;4.20;;;;;;;9.46;66.26;99831.94;684046;28;1215;-85
2022/11/24 00:20:52;;;;;;;10.75;4.20;;;;;;;9.42;66.28;99829.25;686217;28;1270;-84
2022/11/24 00:21:15;;;;;;;10.77;3.90;;;;;;;9.46;66.38;99834.53;688296;28;1909;-84
2022/11/24 00:21:36;;;;;;;14.32;4.00;;;;;;;9.44;66.30;99844.06;690772;28;944;-85
2022/11/24 00:21:57;;;;;;;14.65;4.07;;;;;;;9.48;66.50;99836.28;687959;28;1625;-83
2022/11/24 00:22:18;;;;;;;14.50;4.05;;;;;;;9.46;66.56;99834.53;690594;28;1336;-84
2022/11/24 00:22:38;;;;;;;11.82;4.38;;;;;;;9.49;66.35;99836.31;690686;28;1163;-85
2022/11/24 00:23:00;;;;;;;9.17;4.03;;;;;;;9.45;66.39;99824.97;690491;28;1534;-84
2022/11/24 00:23:21;;;;;;;9.40;4.30;;;;;;;9.48;65.97;99826.75;686869;28;1119;-84
2022/11/24 00:23:42;;;;;;;9.75;3.75;;;;;;;9.50;66.44;99834.56;685336;28;1143;-84
2022/11/24 00:24:03;;;;;;;12.55;4.05;;;;;;;9.54;66.01;99841.59;685524;28;1021;-84
2022/11/24 00:24:23;;;;;;;11.65;3.70;;;;;;;9.47;66.07;99822.41;692520;28;1153;-84
2022/11/24 00:24:44;;;;;;;10.25;3.80;;;;;;;9.51;66.25;99834.59;690686;28;1046;-84
2022/11/24 00:25:05;;;;;;;10.50;3.80;;;;;;;9.55;66.37;99833.81;692433;28;1831;-84
2022/11/24 00:25:26;;;;;;;11.70;3.70;;;;;;;9.60;66.27;99839.97;693330;28;1208;-84
2022/11/24 00:25:46;;;;;;;10.85;3.60;;;;;;;9.64;66.07;99840.03;692504;28;1077;-84
2022/11/24 00:26:10;;;;;;;12.77;3.83;;;;;;;9.67;65.80;99840.97;693174;28;1474;-84
2022/11/24 00:26:33;;;;;;;14.10;4.13;;;;;;;9.59;66.00;99827.81;693254;28;1256;-85
2022/11/24 00:26:54;;;;;;;15.75;4.50;;;;;;;9.62;65.89;99826.97;693300;28;1431;-87
2022/11/24 00:27:15;;;;;;;14.00;4.50;;;;;;;9.66;66.17;99838.34;692970;28;1296;-86
2022/11/24 00:27:35;;;;;;;13.77;4.38;;;;;;;9.69;65.80;99830.56;685222;28;1116;-85
2022/11/24 00:27:56;;;;;;;12.97;4.20;;;;;;;9.76;65.89;99839.38;689921;28;1061;-85
2022/11/24 00:28:17;;;;;;;13.30;4.32;;;;;;;9.70;66.04;99827.09;690985;28;1180;-85
2022/11/24 00:28:38;;;;;;;12.60;4.47;;;;;;;9.78;65.61;99835.94;690700;28;1300;-86
2022/11/24 00:29:02;;;;;;;11.25;4.20;;;;;;;9.77;66.12;99836.78;686768;28;1404;-85
2022/11/24 00:29:22;;;;;;;9.60;3.72;;;;;;;9.93;65.39;99831.81;691442;28;1233;-85
2022/11/24 00:29:43;;;;;;;9.93;3.60;;;;;;;9.90;65.36;99826.56;687617;28;1146;-85
2022/11/24 00:30:04;;;;;;;11.97;3.87;;;;;;;9.88;65.27;99826.53;687704;28;1149;-84
2022/11/24 00:30:24;;;;;;;13.13;4.20;;;;;;;9.92;65.21;99836.16;693204;28;1122;-85
2022/11/24 00:30:45;;;;;;;14.48;4.45;;;;;;;9.93;65.14;99837.91;692394;28;1600;-85
2022/11/24 00:31:17;;;;;;;14.45;4.70;;;;;;;10.00;65.34;99839.75;690473;28;1503;-86
2022/11/24 00:31:40;;;;;;;13.70;4.13;;;;;;;9.96;65.35;99827.50;682610;29;1204;-85
2022/11/24 00:32:04;;;;;;;14.65;4.35;;;;;;;10.01;64.98;99840.63;688603;28;1527;-84
2022/11/24 00:32:29;;;;;;;14.25;4.60;;;;;;;10.05;65.27;99841.53;689938;28;1300;-84
2022/11/24 00:32:51;;;;;;;12.95;4.68;;;;;;;10.02;64.88;99831.97;685465;28;928;-84
2022/11/24 00:33:12;;;;;;;10.35;4.18;;;;;;;10.02;64.94;99839.78;690718;28;1797;-84
2022/11/24 00:33:32;;;;;;;11.38;4.22;;;;;;;10.01;64.80;99840.63;696093;28;1297;-84
2022/11/24 00:33:58;;;;;;;13.03;4.53;;;;;;;10.01;64.79;99846.72;690433;28;1255;-84
2022/11/24 00:34:19;;;;;;;12.50;5.00;;;;;;;9.98;65.16;99840.56;693171;28;1160;-85
2022/11/24 00:34:40;;;;;;;9.90;4.30;;;;;;;9.94;64.86;99831.84;690685;28;1278;-84
2022/11/24 00:35:01;;;;;;;12.13;4.45;;;;;;;9.94;64.92;99837.03;683168;28;1505;-85
2022/11/24 00:35:22;;;;;;;12.97;4.07;;;;;;;9.95;64.92;99840.53;687678;28;1256;-85
2022/11/24 00:35:42;;;;;;;12.88;4.07;;;;;;;10.02;65.07;99847.59;687929;28;1193;-85
2022/11/24 00:36:03;;;;;;;12.98;3.90;;;;;;;10.05;64.97;99841.53;690438;28;1713;-84
2022/11/24 00:36:30;;;;;;;12.68;4.10;;;;;;;10.03;64.83;99838.94;690435;28;1217;-85
2022/11/24 00:36:51;;;;;;;16.00;4.28;;;;;;;10.07;64.80;99847.69;686578;28;2115;-84
2022/11/24 00:37:11;;;;;;;16.90;4.50;;;;;;;10.00;64.73;99833.66;689773;28;2328;-84
2022/11/24 00:37:32;;;;;;;15.07;4.20;;;;;;;10.06;64.65;99856.34;693189;28;1959;-85
2022/11/24 00:37:54;;;;;;;14.90;4.28;;;;;;;10.04;64.51;99842.41;693257;28;1707;-85
2022/11/24 00:38:15;;;;;;;13.18;4.20;;;;;;;9.98;64.65;99843.19;689178;28;1618;-85
2022/11/24 00:38:36;;;;;;;11.93;4.10;;;;;;;9.96;64.91;99842.28;690339;28;1227;-85
2022/11/24 00:39:02;;;;;;;10.68;4.10;;;;;;;9.97;65.01;99844.91;687457;28;1562;-85
2022/11/24 00:39:23;;;;;;;12.05;4.07;;;;;;;9.99;64.78;99834.50;687862;28;1238;-84
2022/11/24 00:39:43;;;;;;;12.98;3.97;;;;;;;9.98;64.83;99840.56;692790;28;1315;-84
2022/11/24 00:40:05;;;;;;;13.90;4.40;;;;;;;10.02;64.78;99850.22;692029;28;1331;-85
2022/11/24 00:40:25;;;;;;;15.20;4.32;;;;;;;10.01;65.01;99841.50;695935;28;1449;-85
2022/11/24 00:40:46;;;;;;;16.05;4.60;;;;;;;9.98;64.52;99836.25;687905;28;1867;-85
2022/11/24 00:41:06;;;;;;;16.17;4.20;;;;;;;10.05;65.02;99842.44;688039;28;1212;-85
2022/11/24 00:41:28;;;;;;;15.57;4.22;;;;;;;10.00;64.87;99846.69;687911;28;1204;-85
2022/11/24 00:41:49;;;;;;;13.60;4.30;;;;;;;10.04;64.62;99842.41;688005;28;1257;-84
2022/11/24 00:42:10;;;;;;;15.27;4.50;;;;;;;10.06;64.72;99848.53;685034;28;1600;-84
2022/11/24 00:42:30;;;;;;;17.10;5.10;;;;;;;9.99;65.09;99837.13;687848;28;989;-85
2022/11/24 00:42:51;;;;;;;15.52;5.00;;;;;;;10.05;64.86;99842.44;693474;28;771;-84
2022/11/24 00:43:12;;;;;;;13.23;5.00;;;;;;;10.04;64.58;99853.72;690760;28;1247;-85
2022/11/24 00:43:32;;;;;;;11.73;4.30;;;;;;;10.02;64.78;99834.56;690713;28;1135;-85
2022/11/24 00:43:53;;;;;;;12.77;4.17;;;;;;;10.14;64.53;99847.78;690749;28;889;-85
2022/11/24 00:44:14;;;;;;;12.65;4.05;;;;;;;10.03;64.67;99833.72;687246;28;1888;-85
2022/11/24 00:44:35;;;;;;;12.07;4.00;;;;;;;10.04;64.41;99834.56;690412;28;1471;-85
2022/11/24 00:44:55;;;;;;;12.20;3.97;;;;;;;10.05;64.46;99834.59;687534;28;1178;-85
2022/11/24 00:45:16;;;;;;;15.23;4.35;;;;;;;9.99;64.54;99831.91;688682;28;1190;-85
2022/11/24 00:45:36;;;;;;;15.60;4.20;;;;;;;10.01;64.67;99836.28;685970;28;982;-84
2022/11/24 00:45:57;;;;;;;15.60;3.92;;;;;;;10.01;64.51;99845.81;687757;28;1773;-85
2022/11/24 00:46:18;;;;;;;14.93;3.90;;;;;;;10.08;64.40;99850.28;687669;28;1083;-85
2022/11/24 00:46:39;;;;;;;15.57;4.28;;;;;;;10.05;64.62;99850.25;689580;28;1154;-84
2022/11/24 00:47:00;;;;;;;16.08;4.68;;;;;;;10.05;64.68;99841.53;686713;28;1613;-84
2022/11/24 00:47:20;;;;;;;15.20;4.97;;;;;;;10.06;64.93;99846.78;690484;28;1173;-84
2022/11/24 00:47:41;;;;;;;13.33;4.67;;;;;;;10.02;64.66;99847.59;693455;28;1111;-85
2022/11/24 00:48:02;;;;;;;13.93;4.40;;;;;;;10.09;64.65;99846.81;685196;28;1348;-85
2022/11/24 00:48:22;;;;;;;18.20;4.63;;;;;;;10.06;64.53;99849.38;685706;28;1142;-85
2022/11/24 00:48:43;;;;;;;17.57;4.50;;;;;;;10.04;64.71;99839.78;687948;28;1158;-85
2022/11/24 00:49:04;;;;;;;16.40;4.70;;;;;;;10.14;64.56;99849.53;687750;28;1837;-85
2022/11/24 00:49:25;;;;;;;11.20;4.30;;;;;;;10.07;64.33;99840.72;690590;28;1205;-85
2022/11/24 00:49:45;;;;;;;12.80;4.30;;;;;;;10.06;64.49;99844.19;690552;28;1277;-86
2022/11/24 00:50:06;;;;;;;14.35;4.28;;;;;;;10.13;64.35;99840.81;681979;28;1426;-85
2022/11/24 00:50:27;;;;;;;18.58;4.22;;;;;;;10.14;64.64;99849.53;693157;28;1305;-85
2022/11/24 00:51:04;;;;;;;17.70;4.40;;;;;;;10.11;64.38;99841.63;687959;28;803;-86
2022/11/24 00:51:26;;;;;;;10.80;3.83;;;;;;;10.21;64.23;99853.09;692452;28;1232;-84
2022/11/24 00:51:47;;;;;;;9.43;3.78;;;;;;;10.14;64.05;99844.31;687899;28;1219;-85
2022/11/24 00:52:08;;;;;;;9.60;3.80;;;;;;;10.12;64.30;99844.28;687670;28;1579;-85
2022/11/24 00:52:28;;;;;;;11.37;4.03;;;;;;;10.14;64.26;99847.78;687849;28;1118;-85
2022/11/24 00:52:49;;;;;;;12.35;4.28;;;;;;;10.13;63.97;99851.25;687945;28;768;-84
2022/11/24 00:53:10;;;;;;;13.27;4.18;;;;;;;10.10;64.06;99850.31;681533;28;1466;-85
2022/11/24 00:53:31;;;;;;;11.90;3.90;;;;;;;10.17;64.40;99861.69;684959;28;1603;-85
2022/11/24 00:53:52;;;;;;;12.93;3.97;;;;;;;10.06;64.33;99841.56;682499;29;1174;-85
2022/11/24 00:54:13;;;;;;;14.10;4.30;;;;;;;10.09;64.21;99844.22;689871;28;1593;-86
2022/11/24 00:54:33;;;;;;;14.73;4.43;;;;;;;10.09;64.18;99843.34;693207;28;1180;-86
2022/11/24 00:54:54;;;;;;;15.90;4.40;;;;;;;10.12;64.17;99849.50;695085;28;1887;-85
2022/11/24 00:55:14;;;;;;;14.85;4.22;;;;;;;10.17;64.18;99856.47;689133;28;1846;-85
2022/11/24 00:55:35;;;;;;;13.60;3.90;;;;;;;10.18;64.18;99846.09;685163;28;1196;-85
2022/11/24 00:55:56;;;;;;;10.93;3.90;;;;;;;10.09;64.08;99849.44;689078;28;1586;-85
2022/11/24 00:56:16;;;;;;;11.80;4.03;;;;;;;10.11;64.09;99845.13;690454;28;1189;-85
2022/11/24 00:56:37;;;;;;;12.60;4.50;;;;;;;10.05;64.06;99845.03;690726;28;1030;-84
2022/11/24 00:56:58;;;;;;;12.25;4.47;;;;;;;10.11;64.10;99845.13;687628;28;1389;-84
2022/11/24 00:57:18;;;;;;;12.57;4.60;;;;;;;10.05;64.21;99839.81;689110;28;1295;-84
2022/11/24 00:57:39;;;;;;;13.35;4.07;;;;;;;10.03;64.16;99838.94;690786;28;1910;-85
2022/11/24 00:58:00;;;;;;;14.05;3.88;;;;;;;10.05;64.23;99850.25;688957;28;1194;-84
2022/11/24 00:58:21;;;;;;;11.43;3.60;;;;;;;10.04;64.33;99843.28;690510;28;1187;-85
2022/11/24 00:58:42;;;;;;;12.35;3.70;;;;;;;10.08;64.03;99854.63;690672;28;1145;-85
2022/11/24 00:59:03;;;;;;;12.70;4.10;;;;;;;10.08;64.13;99862.47;690238;28;1891;-85
2022/11/24 00:59:23;;;;;;;12.00;3.90;;;;;;;9.99;64.28;99842.31;690509;28;1191;-84
2022/11/24 00:59:44;;;;;;;13.30;4.10;;;;;;;10.00;64.45;99846.69;687842;28;1263;-84
2022/11/24 01:00:05;;;;;;;14.80;4.00;;;;;;;9.96;64.24;99844.91;687286;28;1847;-84
2022/11/24 01:00:26;;;;;;;14.10;3.88;;;;;;;10.01;64.03;99853.66;690088;28;1263;-84
2022/11/24 01:00:47;;;;;;;12.83;3.60;;;;;;;9.95;64.27;99845.75;690619;28;1118;-85
2022/11/24 01:01:14;;;;;;;10.80;3.47;;;;;;;9.94;64.55;99842.25;688117;28;1857;-85
2022/11/24 01:01:35;;;;;;;11.25;3.70;;;;;;;9.92;64.28;99846.59;687890;28;1211;-85
2022/11/24 01:01:56;;;;;;;9.45;3.70;;;;;;;9.95;64.26;99851.81;690524;28;1040;-85
2022/11/24 01:02:16;;;;;;;9.90;3.65;;;;;;;9.95;64.52;99861.41;688734;28;1194;-85
2022/11/24 01:02:37;;;;;;;11.30;3.80;;;;;;;9.96;64.28;99847.50;682688;29;998;-85
2022/11/24 01:02:57;;;;;;;11.60;3.70;;;;;;;9.94;64.42;99857.03;687698;28;1584;-85
2022/11/24 01:03:19;;;;;;;12.23;3.80;;;;;;;9.96;64.05;99857.94;691741;28;1393;-85
2022/11/24 01:03:41;;;;;;;11.15;3.60;;;;;;;9.87;64.49;99849.13;687949;28;1229;-87
2022/11/24 01:04:02;;;;;;;12.95;4.00;;;;;;;9.98;64.68;99859.72;687484;28;1364;-84
2022/11/24 01:04:23;;;;;;;11.48;3.80;;;;;;;9.90;64.65;99847.41;689564;28;1133;-84
2022/11/24 01:04:43;;;;;;;11.55;3.92;;;;;;;9.92;64.46;99853.50;693508;28;1324;-85
2022/11/24 01:05:04;;;;;;;10.93;4.03;;;;;;;9.87;64.57;99841.31;687357;28;1732;-85
2022/11/24 01:05:25;;;;;;;9.90;4.20;;;;;;;9.89;64.76;99841.31;692767;28;1201;-84
2022/11/24 01:05:46;;;;;;;10.37;4.00;;;;;;;9.92;64.54;99846.59;693472;28;795;-85
2022/11/24 01:06:11;;;;;;;9.80;3.75;;;;;;;9.96;64.36;99856.19;690487;28;983;-85
2022/11/24 01:06:31;;;;;;;9.32;3.70;;;;;;;9.85;64.42;99845.59;690554;28;1095;-85
2022/11/24 01:06:52;;;;;;;8.73;3.50;;;;;;;9.82;64.50;99837.72;690586;28;1184;-85
2022/11/24 01:07:13;;;;;;;8.80;3.57;;;;;;;9.89;64.33;99856.06;687531;28;1845;-85
2022/11/24 01:07:33;;;;;;;10.03;3.70;;;;;;;9.89;64.41;99853.47;690572;28;1082;-85
2022/11/24 01:07:54;;;;;;;9.38;3.72;;;;;;;9.86;64.28;99854.28;685289;28;791;-84
2022/11/24 01:08:15;;;;;;;10.87;4.10;;;;;;;9.83;64.79;99860.31;685852;28;1155;-85
2022/11/24 01:08:37;;;;;;;10.40;4.10;;;;;;;9.76;64.39;99850.66;687931;28;1103;-85
2022/11/24 01:08:57;;;;;;;12.18;4.30;;;;;;;9.81;64.45;99859.44;687856;28;1396;-84
2022/11/24 01:09:18;;;;;;;10.20;3.97;;;;;;;9.79;64.46;99853.31;692068;28;1742;-84
2022/11/24 01:09:42;;;;;;;11.70;3.90;;;;;;;9.84;64.34;99856.88;690103;28;1470;-85
2022/11/24 01:10:02;;;;;;;11.93;4.18;;;;;;;9.86;64.53;99867.31;687296;28;1132;-85
2022/11/24 01:10:23;;;;;;;13.00;4.07;;;;;;;9.78;64.53;99856.78;687823;28;1224;-86
2022/11/24 01:10:44;;;;;;;11.83;4.00;;;;;;;9.79;64.67;99855.94;690817;28;933;-85
2022/11/24 01:12:14;;;;;;;15.55;4.35;;;;;;;9.82;64.75;99858.56;688586;28;1576;-85
2022/11/24 01:12:34;;;;;;;12.77;4.20;;;;;;;9.79;64.81;99860.25;690513;28;1347;-85
2022/11/24 01:12:55;;;;;;;13.40;4.25;;;;;;;9.90;64.43;99868.25;690488;28;1097;-85
2022/11/24 01:13:16;;;;;;;13.50;4.07;;;;;;;9.90;64.54;99857.81;689604;28;1799;-85
2022/11/24 01:13:37;;;;;;;12.47;4.13;;;;;;;9.82;64.23;99852.47;690660;28;932;-85
2022/11/24 01:13:58;;;;;;;11.20;4.00;;;;;;;9.80;64.34;99852.47;687624;28;1464;-84
2022/11/24 01:14:21;;;;;;;10.63;4.20;;;;;;;9.89;64.61;99876.94;690090;28;1531;-85
2022/11/24 01:14:42;;;;;;;13.70;4.70;;;;;;;9.85;64.71;99871.66;690731;28;1164;-85
2022/11/24 01:15:03;;;;;;;16.95;5.00;;;;;;;9.87;64.34;99863.84;693083;28;1589;-85
2022/11/24 01:15:24;;;;;;;17.13;4.60;;;;;;;9.97;64.22;99880.53;695178;28;1065;-85
2022/11/24 01:15:45;;;;;;;16.80;4.10;;;;;;;9.87;64.64;99850.81;696137;28;756;-85
2022/11/24 01:16:11;;;;;;;13.20;3.75;;;;;;;9.99;64.64;99873.59;692844;28;1751;-85
2022/11/24 01:16:34;;;;;;;11.10;3.80;;;;;;;10.01;64.39;99866.69;687625;28;1297;-86
2022/11/24 01:16:55;;;;;;;9.45;4.00;;;;;;;9.98;63.96;99862.31;684854;28;1360;-86
2022/11/24 01:17:15;;;;;;;10.70;4.03;;;;;;;10.04;64.25;99878.88;685671;28;1518;-85
2022/11/24 01:17:36;;;;;;;10.80;4.07;;;;;;;10.01;64.17;99877.09;693121;28;1911;-85
2022/11/24 01:17:57;;;;;;;10.30;4.03;;;;;;;9.92;64.16;99861.31;687541;28;1180;-84
2022/11/24 01:18:17;;;;;;;12.53;4.50;;;;;;;10.00;64.30;99870.13;685164;28;1523;-84
2022/11/24 01:18:38;;;;;;;11.70;4.38;;;;;;;9.96;64.45;99874.44;682333;28;1560;-85
2022/11/24 01:18:59;;;;;;;11.88;4.63;;;;;;;9.97;64.10;99870.97;687342;28;1500;-84
2022/11/24 01:19:20;;;;;;;10.18;4.30;;;;;;;9.92;64.31;99863.94;694239;28;1349;-85
2022/11/24 01:19:41;;;;;;;10.52;4.30;;;;;;;9.98;64.10;99871.84;689895;28;1467;-85
2022/11/24 01:20:03;;;;;;;10.50;4.00;;;;;;;9.89;64.00;99858.69;690243;28;1200;-84
2022/11/24 01:20:24;;;;;;;11.45;4.05;;;;;;;9.95;64.06;99866.59;687518;28;1267;-85
2022/11/24 01:20:44;;;;;;;11.50;4.20;;;;;;;9.95;64.18;99866.59;685211;28;1332;-85
2022/11/24 01:21:05;;;;;;;10.87;3.90;;;;;;;9.97;64.13;99864.88;690319;28;1158;-85
2022/11/24 01:21:26;;;;;;;9.85;3.92;;;;;;;9.92;63.81;99861.31;687671;28;1297;-85
2022/11/24 01:21:47;;;;;;;12.25;4.07;;;;;;;9.93;63.86;99863.06;687908;28;1163;-84
2022/11/24 01:22:07;;;;;;;10.85;4.07;;;;;;;9.92;63.85;99863.94;691691;28;1553;-84
2022/11/24 01:22:28;;;;;;;12.60;4.00;;;;;;;9.89;63.94;99863.91;695838;28;1201;-85
2022/11/24 01:22:49;;;;;;;12.93;4.07;;;;;;;9.95;64.25;99871.81;696048;28;1271;-85
2022/11/24 01:23:09;;;;;;;14.77;4.18;;;;;;;9.95;64.06;99877.88;684665;28;1333;-85
2022/11/24 01:23:31;;;;;;;15.57;4.53;;;;;;;9.89;64.13;99861.28;686927;28;1081;-85
2022/11/24 01:23:52;;;;;;;12.90;4.47;;;;;;;9.92;64.04;99866.53;693416;28;1258;-84
2022/11/24 01:24:13;;;;;;;10.63;4.18;;;;;;;9.92;64.10;99866.53;688178;28;1852;-84
2022/11/24 01:24:33;;;;;;;10.05;4.10;;;;;;;9.91;64.17;99875.22;687810;28;1031;-84
2022/11/24 01:24:54;;;;;;;10.77;3.90;;;;;;;9.94;64.16;99870.06;688038;28;748;-85
2022/11/24 01:25:14;;;;;;;11.23;3.88;;;;;;;9.89;63.75;99862.16;687520;28;1424;-84
2022/11/24 01:25:38;;;;;;;10.40;3.50;;;;;;;9.99;63.85;99878.81;682496;28;1329;-85
2022/11/24 01:26:02;;;;;;;10.02;3.60;;;;;;;9.92;63.84;99866.53;683190;28;1265;-85
2022/11/24 01:26:23;;;;;;;9.70;3.45;;;;;;;9.90;63.74;99865.66;688068;28;1178;-85
2022/11/24 01:26:43;;;;;;;11.82;4.25;;;;;;;9.87;63.72;99854.31;690710;28;830;-85
2022/11/24 01:27:05;;;;;;;13.32;4.53;;;;;;;9.89;63.83;99861.28;690297;28;1091;-85
2022/11/24 01:27:25;;;;;;;12.68;4.57;;;;;;;9.92;64.04;99867.44;689886;28;1391;-84
2022/11/24 01:27:46;;;;;;;11.90;4.20;;;;;;;9.95;63.98;99867.47;690446;28;1163;-84
2022/11/24 01:28:07;;;;;;;10.67;3.80;;;;;;;9.90;63.66;99866.53;687617;28;1777;-85
2022/11/24 01:28:42;;;;;;;12.90;4.00;;;;;;;9.91;63.64;99876.09;695893;28;1267;-85
2022/11/24 01:29:03;;;;;;;12.75;4.05;;;;;;;9.86;64.00;99864.72;690276;28;1736;-85
2022/11/24 01:29:24;;;;;;;11.80;4.03;;;;;;;9.89;63.68;99867.34;687774;28;1386;-85
2022/11/24 01:29:45;;;;;;;11.35;4.15;;;;;;;9.87;63.81;99871.69;682445;29;831;-85
2022/11/24 01:30:07;;;;;;;9.77;3.90;;;;;;;9.94;63.98;99872.69;684682;28;1831;-85
2022/11/24 01:30:27;;;;;;;10.05;4.10;;;;;;;9.85;63.83;99861.22;688886;28;1289;-85
2022/11/24 01:31:02;;;;;;;11.03;3.90;;;;;;;9.82;63.95;99861.19;693320;28;1085;-85
2022/11/24 01:31:24;;;;;;;15.45;4.30;;;;;;;9.88;63.90;99873.44;692211;28;1268;-85
2022/11/24 01:31:45;;;;;;;14.65;4.20;;;;;;;9.86;63.90;99873.44;690540;28;1264;-85
2022/11/24 01:32:06;;;;;;;14.00;4.10;;;;;;;9.84;64.14;99875.09;690371;28;1274;-85
2022/11/24 01:32:26;;;;;;;12.88;3.70;;;;;;;9.82;63.92;99871.59;690255;28;1545;-85
2022/11/24 01:32:47;;;;;;;12.93;3.60;;;;;;;9.85;63.84;99876.00;693430;28;1097;-85
2022/11/24 01:33:08;;;;;;;12.30;3.90;;;;;;;9.77;63.94;99857.59;692908;28;1570;-85
2022/11/24 01:33:28;;;;;;;9.98;3.80;;;;;;;9.81;64.20;99863.75;690394;28;1221;-85
2022/11/24 01:33:49;;;;;;;9.07;3.83;;;;;;;9.81;64.04;99879.38;690682;28;937;-85
2022/11/24 01:34:11;;;;;;;9.13;3.50;;;;;;;9.87;63.89;99887.31;689738;28;1927;-85
2022/11/24 01:34:32;;;;;;;12.05;3.70;;;;;;;9.84;63.88;99880.31;694837;28;1197;-85
2022/11/24 01:34:53;;;;;;;13.27;3.30;;;;;;;9.85;63.76;99882.06;687022;28;1140;-85
2022/11/24 01:35:14;;;;;;;14.65;3.60;;;;;;;9.87;64.03;99877.78;691581;28;1827;-85
2022/11/24 01:35:35;;;;;;;12.90;3.73;;;;;;;9.81;64.29;99872.47;694799;28;845;-84
2022/11/24 01:35:57;;;;;;;13.40;3.97;;;;;;;9.90;64.35;99878.69;694932;28;1260;-85
2022/11/24 01:36:18;;;;;;;13.02;3.95;;;;;;;9.91;63.82;99891.75;688785;28;1544;-85
2022/11/24 01:36:39;;;;;;;13.13;3.90;;;;;;;9.90;63.84;99884.78;687752;28;1492;-85
2022/11/24 01:36:59;;;;;;;10.82;4.00;;;;;;;9.85;63.98;99871.66;690672;28;1706;-84
2022/11/24 01:37:20;;;;;;;9.47;4.00;;;;;;;9.87;63.71;99877.78;687513;28;1249;-84
2022/11/24 01:37:40;;;;;;;9.40;4.15;;;;;;;9.89;63.78;99887.34;690419;28;1875;-84
2022/11/24 01:38:01;;;;;;;11.25;4.30;;;;;;;9.85;63.94;99882.06;688022;28;1923;-84
2022/11/24 01:38:22;;;;;;;11.83;4.00;;;;;;;9.86;64.10;99889.06;682250;29;1095;-85
2022/11/24 01:38:43;;;;;;;10.82;3.70;;;;;;;9.92;63.69;99888.28;690306;28;1128;-83
2022/11/24 01:39:04;;;;;;;9.38;3.40;;;;;;;9.87;63.82;99884.72;692967;28;1822;-84
2022/11/24 01:39:24;;;;;;;11.50;3.67;;;;;;;9.86;63.85;99872.53;693496;28;1371;-85
2022/11/24 01:39:45;;;;;;;11.45;3.83;;;;;;;9.89;63.88;99879.53;690509;28;1166;-85
2022/11/24 01:40:07;;;;;;;14.65;3.90;;;;;;;9.95;63.97;99887.47;687344;28;1604;-84
2022/11/24 01:40:27;;;;;;;15.35;4.10;;;;;;;9.93;63.71;99883.94;687844;28;1286;-85
2022/11/24 01:40:48;;;;;;;17.25;3.88;;;;;;;9.93;64.02;99882.22;682574;28;1469;-85
2022/11/24 01:41:13;;;;;;;12.38;3.80;;;;;;;9.90;63.52;99878.69;683509;28;1485;-84
2022/11/24 01:41:34;;;;;;;10.60;3.63;;;;;;;9.93;63.66;99883.94;687876;28;1067;-84
2022/11/24 01:41:55;;;;;;;14.80;4.10;;;;;;;9.97;63.54;99894.41;687881;28;1249;-85
2022/11/24 01:42:16;;;;;;;14.93;4.00;;;;;;;9.97;63.66;99885.75;690166;28;1472;-84
2022/11/24 01:42:45;;;;;;;16.52;3.90;;;;;;;9.93;63.59;99889.13;689997;28;1095;-85
2022/11/24 01:43:21;;;;;;;14.35;3.63;;;;;;;9.92;63.71;99890.88;683216;28;1397;-84
2022/11/24 01:43:43;;;;;;;14.70;4.03;;;;;;;9.81;63.61;99875.06;679761;29;1229;-85
2022/11/24 01:44:20;;;;;;;14.38;4.00;;;;;;;9.74;63.77;99870.59;684954;28;1428;-84
2022/11/24 01:44:43;;;;;;;8.93;3.67;;;;;;;9.77;63.74;99877.59;687865;28;1027;-84
2022/11/24 01:45:28;;;;;;;9.70;3.70;;;;;;;9.81;63.88;99893.31;692238;28;1689;-84